Time;durP1;ratioP1;P1;durP2;ratioP2;P2;SDS_P1;SDS_P2;PMS_P1;PMS_P2;Temp;Humidity;BMP_temperature;BMP_pressure;BME280_temperature;BME280_humidity;BME280_pressure;Samples;Min_cycle;Max_cycle;Signal;HPM_P1;HPM_P2
2023/03/06 00:00:25;;;;;;;6.57;2.17;;;-0.20;98.60;;;;;;4980808;28;20130;-74
2023/03/06 00:02:52;;;;;;;9.40;2.22;;;-0.20;98.70;;;;;;4984854;28;20408;-74
2023/03/06 00:05:19;;;;;;;9.48;2.25;;;-0.20;99.10;;;;;;4967496;28;20061;-74
2023/03/06 00:07:45;;;;;;;5.55;2.53;;;-0.20;99.10;;;;;;4982973;28;20050;-74
2023/03/06 00:10:19;;;;;;;10.75;2.22;;;-0.20;99.40;;;;;;4984678;28;20058;-74
2023/03/06 00:12:46;;;;;;;6.50;2.22;;;-0.20;99.70;;;;;;4993659;28;20046;-75
2023/03/06 00:15:13;;;;;;;6.40;2.58;;;-0.20;99.80;;;;;;4970399;28;20053;-74
2023/03/06 00:17:40;;;;;;;4.65;2.00;;;-0.20;100.00;;;;;;4985854;28;20061;-75
2023/03/06 00:20:09;;;;;;;14.40;3.05;;;-0.20;100.00;;;;;;4984971;28;20440;-75
2023/03/06 00:22:36;;;;;;;4.93;2.10;;;-0.20;100.00;;;;;;4971748;28;20050;-75
2023/03/06 00:25:04;;;;;;;9.40;2.42;;;-0.20;100.00;;;;;;4982588;28;20055;-75
2023/03/06 00:27:31;;;;;;;13.27;2.90;;;-0.20;100.00;;;;;;4985917;28;20135;-75
2023/03/06 00:29:59;;;;;;;12.70;3.63;;;-0.20;100.00;;;;;;4968180;28;20054;-75
2023/03/06 00:32:27;;;;;;;8.38;2.55;;;-0.20;100.00;;;;;;4986026;28;20060;-75
2023/03/06 00:34:55;;;;;;;9.20;3.15;;;-0.20;100.00;;;;;;4979690;28;20842;-75
2023/03/06 00:37:23;;;;;;;10.40;3.05;;;-0.20;100.00;;;;;;4971396;28;20038;-75
2023/03/06 00:39:51;;;;;;;12.88;2.78;;;-0.20;100.00;;;;;;4985348;28;20050;-75
2023/03/06 00:42:18;;;;;;;8.95;3.08;;;-0.20;100.00;;;;;;4963504;28;20050;-75
2023/03/06 00:44:45;;;;;;;6.68;3.00;;;-0.20;100.00;;;;;;4965989;28;20046;-75
2023/03/06 00:47:12;;;;;;;7.15;3.20;;;-0.20;100.00;;;;;;4967218;28;20076;-75
2023/03/06 00:49:39;;;;;;;5.93;3.35;;;-0.20;100.00;;;;;;4962341;28;20050;-75
2023/03/06 00:52:06;;;;;;;8.18;2.97;;;-0.20;100.00;;;;;;4985738;28;20050;-76
2023/03/06 00:54:33;;;;;;;6.63;3.22;;;-0.20;100.00;;;;;;4965683;28;20042;-75
2023/03/06 00:56:59;;;;;;;13.15;3.80;;;-0.20;100.00;;;;;;4984613;28;20054;-75
2023/03/06 00:59:27;;;;;;;16.10;3.83;;;-0.20;100.00;;;;;;4964626;28;20641;-75
2023/03/06 01:01:54;;;;;;;6.78;3.20;;;-0.20;100.00;;;;;;4986142;28;20078;-75
2023/03/06 01:04:21;;;;;;;8.85;3.67;;;-0.20;100.00;;;;;;4984170;28;20050;-76
2023/03/06 01:06:48;;;;;;;8.77;3.47;;;-0.20;100.00;;;;;;4988723;28;20073;-75
2023/03/06 01:09:15;;;;;;;7.10;3.47;;;-0.20;100.00;;;;;;4986996;28;20058;-75
2023/03/06 01:11:41;;;;;;;12.25;3.20;;;-0.20;100.00;;;;;;4989980;28;20057;-75
2023/03/06 01:14:08;;;;;;;7.65;3.28;;;-0.20;100.00;;;;;;4984125;28;20046;-76
2023/03/06 01:16:35;;;;;;;7.10;2.80;;;-0.20;100.00;;;;;;4985063;28;20080;-76
2023/03/06 01:19:05;;;;;;;10.25;2.67;;;-0.20;100.00;;;;;;4967671;28;20053;-75
2023/03/06 01:21:31;;;;;;;12.95;3.42;;;-0.20;100.00;;;;;;4985089;28;20046;-75
2023/03/06 01:23:58;;;;;;;12.40;3.03;;;-0.20;100.00;;;;;;4984676;28;20054;-75
2023/03/06 01:26:25;;;;;;;9.40;3.28;;;-0.20;100.00;;;;;;4969884;28;20058;-75
2023/03/06 01:28:52;;;;;;;9.23;3.15;;;-0.20;100.00;;;;;;4987236;28;20430;-75
2023/03/06 01:31:19;;;;;;;11.63;3.70;;;-0.20;100.00;;;;;;4984469;28;20132;-75
2023/03/06 01:33:45;;;;;;;8.95;3.15;;;-0.20;100.00;;;;;;4981962;28;20042;-75
2023/03/06 01:36:12;;;;;;;9.18;3.50;;;-0.20;100.00;;;;;;4984678;28;20050;-75
2023/03/06 01:38:39;;;;;;;6.03;2.67;;;-0.30;100.00;;;;;;4972455;28;20050;-75
2023/03/06 01:41:06;;;;;;;16.77;3.08;;;-0.30;100.00;;;;;;4984694;28;20057;-75
2023/03/06 01:43:36;;;;;;;11.27;2.97;;;-0.30;100.00;;;;;;4965324;28;20042;-71
2023/03/06 01:46:24;;;;;;;8.77;2.60;;;-0.30;100.00;;;;;;4965050;28;20050;-71
2023/03/06 01:49:08;;;;;;;9.70;2.42;;;-0.30;100.00;;;;;;4981128;28;20058;-71
2023/03/06 01:51:39;;;;;;;4.53;2.30;;;-0.30;100.00;;;;;;4965808;28;20057;-71
2023/03/06 01:54:15;;;;;;;10.20;2.42;;;-0.40;100.00;;;;;;4966461;28;20042;-71
2023/03/06 02:00:14;;;;;;;10.00;2.45;;;-0.40;100.00;;;;;;4997570;28;20053;-75
2023/03/06 02:02:44;;;;;;;4.07;1.77;;;-0.40;100.00;;;;;;4983783;28;20056;-75
2023/03/06 02:05:11;;;;;;;7.65;2.33;;;-0.50;100.00;;;;;;5000650;28;20058;-75
2023/03/06 02:07:39;;;;;;;5.55;2.35;;;-0.50;100.00;;;;;;4987740;28;20054;-76
2023/03/06 02:10:07;;;;;;;9.05;2.40;;;-0.50;100.00;;;;;;5001674;28;20065;-76
2023/03/06 02:12:36;;;;;;;11.07;2.10;;;-0.60;100.00;;;;;;4990029;28;20064;-75
2023/03/06 02:15:03;;;;;;;5.32;1.95;;;-0.60;100.00;;;;;;5000773;28;20111;-76
2023/03/06 02:17:32;;;;;;;8.75;2.13;;;-0.70;100.00;;;;;;4985236;28;20050;-76
2023/03/06 02:20:19;;;;;;;11.05;2.50;;;-0.80;100.00;;;;;;5002203;28;20060;-75
2023/03/06 02:23:08;;;;;;;6.82;2.28;;;-0.90;100.00;;;;;;4990452;28;20060;-75
2023/03/06 02:25:42;;;;;;;5.65;2.08;;;-0.90;100.00;;;;;;4983092;28;20050;-75
2023/03/06 02:28:12;;;;;;;10.85;2.42;;;-1.10;100.00;;;;;;4987309;28;20057;-75
2023/03/06 02:30:40;;;;;;;5.45;2.00;;;-1.20;100.00;;;;;;5000264;28;20553;-75
2023/03/06 02:33:10;;;;;;;13.63;3.03;;;-1.20;100.00;;;;;;5002710;28;20050;-75
2023/03/06 02:35:38;;;;;;;9.13;2.53;;;-1.30;100.00;;;;;;5001219;28;20041;-75
2023/03/06 02:38:10;;;;;;;5.25;2.03;;;-1.40;100.00;;;;;;4989221;28;20081;-75
2023/03/06 02:40:37;;;;;;;6.57;2.05;;;-1.40;100.00;;;;;;5001605;28;20093;-75
2023/03/06 02:43:04;;;;;;;7.97;2.17;;;-1.50;100.00;;;;;;5002515;28;20054;-75
2023/03/06 02:45:43;;;;;;;5.43;2.10;;;-1.50;100.00;;;;;;5001273;28;20482;-75
2023/03/06 02:48:14;;;;;;;7.22;1.63;;;-1.60;100.00;;;;;;4988471;28;20149;-74
2023/03/06 02:50:42;;;;;;;7.07;2.15;;;-1.60;100.00;;;;;;4999426;28;20054;-75
2023/03/06 02:53:12;;;;;;;5.70;2.22;;;-1.60;100.00;;;;;;5001558;28;20061;-75
2023/03/06 02:55:39;;;;;;;4.22;1.90;;;-1.70;100.00;;;;;;5001816;28;20052;-71
2023/03/06 02:58:07;;;;;;;10.18;2.15;;;-1.70;100.00;;;;;;5010142;23;20076;-71
2023/03/06 03:00:34;;;;;;;4.18;2.28;;;-1.70;100.00;;;;;;4977902;28;20057;-71
2023/03/06 03:03:01;;;;;;;9.30;1.88;;;-1.70;100.00;;;;;;4981836;28;20056;-71
2023/03/06 03:05:28;;;;;;;8.93;2.25;;;-1.70;100.00;;;;;;4994953;28;20372;-72
2023/03/06 03:07:54;;;;;;;14.88;2.08;;;-1.60;100.00;;;;;;4979088;28;20057;-71
2023/03/06 03:13:29;;;;;;;5.03;2.10;;;-1.60;100.00;;;;;;4969046;23;20550;-71
2023/03/06 03:16:01;;;;;;;15.35;2.22;;;-1.60;100.00;;;;;;4961410;28;20486;-72
2023/03/06 03:18:28;;;;;;;4.28;1.63;;;-1.60;100.00;;;;;;4958114;28;20078;-72
2023/03/06 03:20:55;;;;;;;8.73;2.08;;;-1.60;100.00;;;;;;4961992;28;20046;-72
2023/03/06 03:23:22;;;;;;;3.90;2.00;;;-1.70;100.00;;;;;;4956823;28;20050;-71
2023/03/06 03:25:49;;;;;;;8.00;1.98;;;-1.70;100.00;;;;;;4946064;28;20121;-71
2023/03/06 03:28:17;;;;;;;3.00;1.77;;;-1.70;100.00;;;;;;4964191;28;20061;-71
2023/03/06 03:30:44;;;;;;;10.55;1.48;;;-1.80;100.00;;;;;;4958862;28;20575;-71
2023/03/06 03:33:11;;;;;;;7.00;1.70;;;-1.90;100.00;;;;;;4963205;28;20063;-72
2023/03/06 03:35:38;;;;;;;9.82;1.50;;;-1.90;100.00;;;;;;4965837;23;20057;-71
2023/03/06 03:38:05;;;;;;;5.05;0.93;;;-1.90;100.00;;;;;;4976011;28;20062;-71
2023/03/06 03:40:32;;;;;;;3.50;1.58;;;-2.00;100.00;;;;;;4979936;28;20046;-71
2023/03/06 03:42:59;;;;;;;5.90;1.17;;;-2.00;100.00;;;;;;4977834;28;20046;-71
2023/03/06 03:45:26;;;;;;;11.98;1.45;;;-2.10;100.00;;;;;;4979669;28;20066;-71
2023/03/06 03:47:52;;;;;;;4.80;1.38;;;-2.10;100.00;;;;;;4982476;28;20096;-71
2023/03/06 03:50:19;;;;;;;7.82;1.85;;;-2.20;100.00;;;;;;4979367;28;20077;-71
2023/03/06 03:52:46;;;;;;;4.15;1.48;;;-2.20;100.00;;;;;;4976488;28;20054;-71
2023/03/06 03:55:13;;;;;;;4.95;1.65;;;-2.30;100.00;;;;;;4978194;28;20080;-71
2023/03/06 03:57:41;;;;;;;4.20;1.63;;;-2.40;100.00;;;;;;4983856;28;20152;-71
2023/03/06 04:00:13;;;;;;;4.60;1.73;;;-2.40;100.00;;;;;;4978811;28;20745;-75
2023/03/06 04:02:41;;;;;;;3.60;1.50;;;-2.50;100.00;;;;;;4975175;28;20082;-74
2023/03/06 04:05:09;;;;;;;13.85;1.60;;;-2.50;100.00;;;;;;4979000;28;20061;-75
2023/03/06 04:07:36;;;;;;;4.53;1.27;;;-2.60;100.00;;;;;;4980891;28;20161;-75
2023/03/06 04:13:30;;;;;;;;;;;-2.60;100.00;;;;;;4967811;28;20618;-71
2023/03/06 04:15:58;;;;;;;3.22;1.30;;;-2.70;100.00;;;;;;4955231;28;19927;-71
2023/03/06 04:18:25;;;;;;;6.30;1.13;;;-2.70;100.00;;;;;;4967254;28;20085;-70
2023/03/06 04:20:52;;;;;;;3.13;1.30;;;-2.80;100.00;;;;;;4968987;28;20062;-71
2023/03/06 04:23:21;;;;;;;9.70;1.52;;;-2.80;100.00;;;;;;4973308;28;20130;-71
2023/03/06 04:25:48;;;;;;;6.45;1.48;;;-2.80;100.00;;;;;;4963986;28;20059;-71
2023/03/06 04:28:16;;;;;;;7.60;1.10;;;-2.90;100.00;;;;;;4962058;28;20066;-71
2023/03/06 04:30:42;;;;;;;2.63;1.42;;;-2.90;100.00;;;;;;4976093;28;20057;-71
2023/03/06 04:33:09;;;;;;;8.82;1.42;;;-2.90;100.00;;;;;;4977396;28;20054;-71
2023/03/06 04:35:36;;;;;;;4.40;1.10;;;-2.90;100.00;;;;;;4964765;28;20061;-71
2023/03/06 04:38:04;;;;;;;2.00;1.27;;;-3.00;100.00;;;;;;4974759;28;20407;-71
2023/03/06 04:40:33;;;;;;;8.48;1.63;;;-3.00;100.00;;;;;;4963126;28;20385;-71
2023/03/06 04:43:01;;;;;;;6.22;1.50;;;-3.00;100.00;;;;;;4976534;28;20167;-72
2023/03/06 04:45:29;;;;;;;5.43;1.50;;;-3.10;100.00;;;;;;4960940;28;20134;-72
2023/03/06 04:47:57;;;;;;;2.95;1.10;;;-3.10;100.00;;;;;;4978838;28;20094;-75
2023/03/06 04:50:26;;;;;;;2.85;1.13;;;-3.20;100.00;;;;;;4963448;28;20055;-76
2023/03/06 04:52:53;;;;;;;5.90;1.35;;;-3.20;100.00;;;;;;4964858;28;20490;-75
2023/03/06 04:55:20;;;;;;;10.95;1.35;;;-3.20;100.00;;;;;;4963671;28;20046;-75
2023/03/06 04:57:47;;;;;;;8.55;1.77;;;-3.20;100.00;;;;;;4969049;28;20039;-75
2023/03/06 05:00:18;;;;;;;8.65;1.83;;;-3.20;100.00;;;;;;4966287;28;20566;-75
2023/03/06 05:02:46;;;;;;;8.85;1.45;;;-3.20;100.00;;;;;;4967079;28;20053;-75
2023/03/06 05:05:14;;;;;;;6.28;1.27;;;-3.30;100.00;;;;;;4965726;28;20063;-75
2023/03/06 05:07:41;;;;;;;9.25;1.40;;;-3.30;100.00;;;;;;4965700;28;20051;-75
2023/03/06 05:10:12;;;;;;;3.25;1.30;;;-3.30;100.00;;;;;;4965455;28;20057;-75
2023/03/06 05:12:39;;;;;;;5.20;1.42;;;-3.30;100.00;;;;;;4969543;28;20864;-75
2023/03/06 05:15:07;;;;;;;3.40;1.10;;;-3.40;100.00;;;;;;5047078;23;20058;-75
2023/03/06 05:20:29;;;;;;;6.20;1.90;;;-3.40;100.00;;;;;;4983648;28;20798;-72
2023/03/06 05:22:56;;;;;;;7.80;2.10;;;-3.40;100.00;;;;;;4966491;28;20648;-72
2023/03/06 05:25:23;;;;;;;8.55;1.38;;;-3.40;100.00;;;;;;4963649;28;20070;-71
2023/03/06 05:27:50;;;;;;;5.72;2.03;;;-3.50;100.00;;;;;;4985919;28;20916;-71
2023/03/06 05:30:17;;;;;;;6.50;2.00;;;-3.50;100.00;;;;;;4979749;28;20046;-71
2023/03/06 05:32:44;;;;;;;3.60;1.55;;;-3.50;100.00;;;;;;4980541;28;20137;-71
2023/03/06 05:35:16;;;;;;;5.28;1.60;;;-3.50;100.00;;;;;;4965187;28;20054;-71
2023/03/06 05:37:43;;;;;;;7.32;2.55;;;-3.50;100.00;;;;;;4983929;28;20072;-71
2023/03/06 05:40:11;;;;;;;7.15;2.03;;;-3.50;100.00;;;;;;4961304;28;20051;-71
2023/03/06 05:42:38;;;;;;;7.22;2.42;;;-3.50;100.00;;;;;;4949124;28;20046;-71
2023/03/06 05:45:05;;;;;;;5.38;2.08;;;-3.60;100.00;;;;;;4976806;28;20063;-71
2023/03/06 05:47:32;;;;;;;10.80;2.08;;;-3.50;100.00;;;;;;4972233;23;21185;-75
2023/03/06 05:49:59;;;;;;;5.30;2.15;;;-3.50;100.00;;;;;;4984367;28;20061;-75
2023/03/06 05:52:26;;;;;;;8.07;3.00;;;-3.50;100.00;;;;;;4984714;28;20061;-75
2023/03/06 05:54:53;;;;;;;8.82;3.35;;;-3.50;100.00;;;;;;4981150;28;20092;-75
2023/03/06 05:57:22;;;;;;;5.65;2.30;;;-3.50;100.00;;;;;;4985582;28;20062;-75
2023/03/06 05:59:49;;;;;;;3.50;1.83;;;-3.50;100.00;;;;;;4989760;23;20065;-75
2023/03/06 06:05:31;;;;;;;14.57;2.10;;;-3.50;100.00;;;;;;4997615;23;20049;-76
2023/03/06 06:07:58;;;;;;;8.90;2.08;;;-3.50;100.00;;;;;;4990069;28;20569;-76
2023/03/06 06:10:24;;;;;;;6.20;2.60;;;-3.50;100.00;;;;;;5006796;22;20057;-77
2023/03/06 06:12:51;;;;;;;8.02;1.92;;;-3.50;100.00;;;;;;4995560;23;20396;-77
2023/03/06 06:15:18;;;;;;;4.72;1.77;;;-3.40;100.00;;;;;;4986923;28;20069;-77
2023/03/06 06:17:45;;;;;;;5.80;1.75;;;-3.40;100.00;;;;;;4988136;28;20391;-76
2023/03/06 06:20:13;;;;;;;5.95;1.70;;;-3.40;100.00;;;;;;4994058;28;20236;-75
2023/03/06 06:22:40;;;;;;;11.50;2.58;;;-3.30;100.00;;;;;;4991217;28;20644;-75
2023/03/06 06:27:59;;;;;;;6.47;2.25;;;-3.30;100.00;;;;;;4983427;28;20410;-75
2023/03/06 06:30:26;;;;;;;6.05;2.28;;;-3.20;100.00;;;;;;4995917;23;20049;-70
2023/03/06 06:32:53;;;;;;;15.55;2.53;;;-3.20;100.00;;;;;;4996359;28;20697;-70
2023/03/06 06:35:19;;;;;;;14.80;2.72;;;-3.20;100.00;;;;;;4999596;28;20052;-70
2023/03/06 06:37:47;;;;;;;7.75;2.60;;;-3.10;100.00;;;;;;5002902;28;20069;-70
2023/03/06 06:40:14;;;;;;;5.43;2.30;;;-3.00;100.00;;;;;;5001473;28;20053;-70
2023/03/06 06:45:32;;;;;;;5.13;2.13;;;-2.80;100.00;;;;;;4965724;28;20046;-73
2023/03/06 06:47:58;;;;;;;9.63;3.30;;;-2.70;100.00;;;;;;4967688;28;20060;-73
2023/03/06 06:50:25;;;;;;;7.70;2.95;;;-2.70;100.00;;;;;;4963383;28;20411;-73
2023/03/06 06:52:52;;;;;;;5.90;2.38;;;-2.60;100.00;;;;;;4965439;28;20453;-73
2023/03/06 06:55:19;;;;;;;6.05;2.35;;;-2.50;100.00;;;;;;4969881;28;20051;-73
2023/03/06 06:57:46;;;;;;;5.50;2.45;;;-2.50;100.00;;;;;;4965428;28;20643;-73
2023/03/06 07:00:13;;;;;;;5.32;2.10;;;-2.40;100.00;;;;;;4965958;28;20854;-73
2023/03/06 07:02:40;;;;;;;6.00;2.25;;;-2.30;100.00;;;;;;4974681;23;20065;-71
2023/03/06 07:05:08;;;;;;;11.80;2.67;;;-2.20;100.00;;;;;;4995544;28;20056;-71
2023/03/06 07:07:36;;;;;;;7.07;2.55;;;-2.10;100.00;;;;;;5003668;28;20592;-70
2023/03/06 07:10:07;;;;;;;13.73;2.88;;;-1.90;100.00;;;;;;4979362;28;20832;-71
2023/03/06 07:12:34;;;;;;;8.10;2.13;;;-1.80;100.00;;;;;;4979645;28;20050;-71
2023/03/06 07:15:01;;;;;;;6.80;2.38;;;-1.70;100.00;;;;;;4995786;28;20050;-71
2023/03/06 07:17:28;;;;;;;8.52;2.88;;;-1.60;100.00;;;;;;4991308;28;20046;-71
2023/03/06 07:19:55;;;;;;;4.85;2.50;;;-1.50;100.00;;;;;;4991521;28;20077;-71
2023/03/06 07:22:22;;;;;;;11.10;2.75;;;-1.30;100.00;;;;;;4982801;28;20083;-71
2023/03/06 07:24:55;;;;;;;6.38;2.55;;;-1.20;100.00;;;;;;4986224;28;20814;-70
2023/03/06 07:27:24;;;;;;;9.13;2.20;;;-1.10;100.00;;;;;;4999341;28;20066;-70
2023/03/06 07:29:51;;;;;;;9.38;2.20;;;-1.00;100.00;;;;;;4981738;28;20053;-71
2023/03/06 07:32:19;;;;;;;6.60;2.33;;;-0.80;100.00;;;;;;4999097;28;20072;-71
2023/03/06 07:34:46;;;;;;;9.93;2.85;;;-0.60;100.00;;;;;;4995167;28;20070;-71
2023/03/06 07:37:13;;;;;;;12.40;3.13;;;-0.30;99.50;;;;;;4996074;28;20049;-71
2023/03/06 07:39:40;;;;;;;11.55;3.33;;;-0.20;98.40;;;;;;4999204;28;20046;-71
2023/03/06 07:42:07;;;;;;;9.18;2.63;;;-0.10;97.50;;;;;;4995597;28;20112;-71
2023/03/06 07:44:37;;;;;;;10.80;3.13;;;0.00;97.00;;;;;;4993777;28;20061;-71
2023/03/06 07:47:05;;;;;;;6.43;2.70;;;0.00;96.60;;;;;;5010759;22;20048;-71
2023/03/06 07:49:33;;;;;;;8.07;2.38;;;0.10;96.50;;;;;;4992676;28;20049;-71
2023/03/06 07:52:00;;;;;;;7.22;3.05;;;0.10;95.40;;;;;;5000077;28;20132;-71
2023/03/06 07:54:29;;;;;;;9.63;3.05;;;0.10;95.50;;;;;;4998121;28;20414;-71
2023/03/06 08:00:14;;;;;;;7.35;3.25;;;0.20;95.00;;;;;;4971554;28;20059;-74
2023/03/06 08:02:42;;;;;;;7.97;3.95;;;0.20;95.50;;;;;;4970295;28;20054;-74
2023/03/06 08:05:12;;;;;;;9.95;3.80;;;0.20;95.90;;;;;;5160524;23;20048;-74
2023/03/06 08:07:43;;;;;;;9.73;3.75;;;0.40;95.80;;;;;;5068495;23;20062;-74
2023/03/06 08:13:32;;;;;;;9.18;3.72;;;1.40;93.90;;;;;;5033816;23;20062;-71
2023/03/06 08:15:59;;;;;;;12.68;4.00;;;2.70;88.20;;;;;;4977056;28;20050;-71
2023/03/06 08:18:27;;;;;;;9.18;3.70;;;3.00;85.90;;;;;;4982512;28;20050;-75
2023/03/06 08:21:13;;;;;;;7.05;3.45;;;3.20;84.70;;;;;;4985049;28;20050;-75
2023/03/06 08:23:40;;;;;;;8.05;3.33;;;3.10;84.40;;;;;;4979829;28;20046;-75
2023/03/06 08:26:12;;;;;;;6.50;2.95;;;3.20;84.70;;;;;;4985324;28;20723;-74
2023/03/06 08:28:40;;;;;;;7.63;3.28;;;3.00;84.90;;;;;;5037988;23;20144;-74
2023/03/06 08:31:11;;;;;;;10.05;3.47;;;3.40;87.30;;;;;;4965167;28;20157;-75
2023/03/06 08:33:39;;;;;;;10.02;3.47;;;3.60;84.40;;;;;;4988129;28;20054;-75
2023/03/06 08:36:06;;;;;;;8.90;3.90;;;4.40;83.40;;;;;;5035559;23;20050;-75
2023/03/06 08:38:33;;;;;;;13.10;4.22;;;5.30;79.20;;;;;;5069205;23;20047;-74
2023/03/06 08:41:00;;;;;;;11.65;3.67;;;5.70;75.10;;;;;;4947120;28;20604;-75
2023/03/06 08:43:27;;;;;;;10.77;4.30;;;5.70;78.10;;;;;;4929152;28;20051;-75
2023/03/06 08:45:55;;;;;;;8.48;4.38;;;6.60;76.00;;;;;;5047000;23;20153;-74
2023/03/06 08:48:23;;;;;;;8.45;3.92;;;7.00;71.70;;;;;;4981953;28;20058;-74
2023/03/06 08:51:04;;;;;;;11.88;4.20;;;7.30;69.00;;;;;;5022575;23;20777;-71
2023/03/06 08:53:31;;;;;;;8.32;4.28;;;6.50;68.70;;;;;;4968020;28;20053;-72
2023/03/06 08:56:35;;;;;;;11.25;4.07;;;5.90;73.00;;;;;;4998169;23;20104;-75
2023/03/06 09:01:35;;;;;;;10.38;4.38;;;4.70;74.60;;;;;;4943029;28;20078;-72
2023/03/06 09:04:10;;;;;;;12.77;4.35;;;4.30;77.60;;;;;;4945282;28;20055;-72
2023/03/06 09:06:40;;;;;;;10.88;4.60;;;4.30;75.50;;;;;;4926541;29;20059;-71
2023/03/06 09:11:41;;;;;;;13.03;4.20;;;3.70;78.20;;;;;;4964070;28;20116;-75
2023/03/06 09:14:08;;;;;;;16.27;4.95;;;3.90;78.90;;;;;;4967790;28;20072;-76
2023/03/06 09:16:35;;;;;;;15.63;4.80;;;4.00;78.70;;;;;;4964429;28;20137;-75
2023/03/06 09:19:02;;;;;;;11.05;4.40;;;4.20;78.90;;;;;;4964809;28;20109;-75
2023/03/06 09:21:28;;;;;;;14.77;5.45;;;4.20;77.60;;;;;;4961492;28;20051;-75
2023/03/06 09:23:55;;;;;;;14.95;4.93;;;4.40;78.60;;;;;;4968142;28;20474;-75
2023/03/06 09:26:22;;;;;;;14.65;5.65;;;4.80;77.70;;;;;;4965595;28;20058;-74
2023/03/06 09:29:05;;;;;;;12.65;5.00;;;5.00;74.60;;;;;;4978381;28;20140;-74
2023/03/06 09:31:32;;;;;;;14.85;4.95;;;5.60;73.80;;;;;;4962998;28;20057;-74
2023/03/06 09:33:59;;;;;;;12.25;5.22;;;6.30;73.60;;;;;;4961536;28;20059;-74
2023/03/06 09:39:00;;;;;;;13.10;4.88;;;7.20;67.30;;;;;;4982344;23;20415;-72
2023/03/06 09:44:52;;;;;;;16.38;5.20;;;8.20;67.20;;;;;;5003192;23;20057;-72
2023/03/06 09:48:02;;;;;;;12.30;4.88;;;9.30;63.60;;;;;;5002490;28;20398;-72
2023/03/06 09:50:34;;;;;;;17.00;5.88;;;9.40;63.30;;;;;;4947515;28;20060;-72
2023/03/06 09:56:49;;;;;;;12.60;5.05;;;8.00;65.80;;;;;;4966322;28;20051;-74
2023/03/06 09:59:46;;;;;;;9.48;5.25;;;8.50;65.50;;;;;;4978749;23;20068;-74
2023/03/06 10:02:44;;;;;;;13.50;5.43;;;8.40;65.30;;;;;;4966327;28;20565;-74
2023/03/06 10:05:20;;;;;;;12.85;6.18;;;9.20;65.60;;;;;;4984798;28;20153;-74
2023/03/06 10:07:53;;;;;;;;;;;9.90;61.90;;;;;;4983800;28;20067;-74
2023/03/06 10:10:27;;;;;;;11.38;4.65;;;10.00;58.50;;;;;;4985730;28;19929;-74
2023/03/06 10:13:23;;;;;;;11.32;4.82;;;9.30;57.10;;;;;;4978287;23;20050;-72
2023/03/06 10:16:06;;;;;;;12.50;4.78;;;8.50;63.50;;;;;;5000716;28;20068;-72
2023/03/06 10:18:37;;;;;;;10.10;5.05;;;9.40;59.30;;;;;;5000820;28;20042;-72
2023/03/06 10:21:31;;;;;;;16.05;5.22;;;8.70;60.00;;;;;;5004522;28;20108;-72
2023/03/06 10:29:51;;;;;;;14.32;5.13;;;9.50;57.60;;;;;;4979041;28;20438;-74
2023/03/06 10:32:53;;;;;;;9.65;4.28;;;9.10;58.30;;;;;;4977291;28;20479;-74
2023/03/06 10:35:41;;;;;;;11.68;4.18;;;7.70;57.20;;;;;;4996054;28;20137;-74
2023/03/06 10:38:24;;;;;;;8.93;3.80;;;7.20;65.40;;;;;;4988085;28;20054;-74
2023/03/06 10:41:06;;;;;;;14.90;4.45;;;9.00;62.20;;;;;;4975027;28;20059;-74
2023/03/06 10:43:44;;;;;;;16.67;3.85;;;10.80;57.30;;;;;;4990588;28;20619;-74
2023/03/06 10:46:25;;;;;;;10.48;2.80;;;11.50;54.90;;;;;;4974741;28;20053;-74
2023/03/06 10:49:04;;;;;;;6.68;2.67;;;11.50;54.10;;;;;;4973754;28;20101;-74
2023/03/06 10:51:33;;;;;;;11.80;3.22;;;11.50;51.60;;;;;;4981233;23;20047;-74
2023/03/06 10:54:16;;;;;;;8.00;2.63;;;11.30;52.80;;;;;;4973869;23;20054;-74
2023/03/06 10:56:45;;;;;;;8.00;2.53;;;11.30;53.40;;;;;;4992203;28;20054;-74
2023/03/06 10:59:24;;;;;;;8.57;2.00;;;10.40;49.80;;;;;;4961062;28;20479;-74
2023/03/06 11:08:34;;;;;;;7.03;2.10;;;8.90;56.30;;;;;;4924339;28;20059;-72
2023/03/06 11:11:07;;;;;;;7.30;2.08;;;9.20;55.20;;;;;;4918170;29;20226;-72
2023/03/06 11:16:33;;;;;;;4.82;2.08;;;11.40;51.90;;;;;;4984962;23;20066;-70
2023/03/06 11:19:05;;;;;;;5.78;1.67;;;11.70;49.00;;;;;;4963713;28;20114;-72
2023/03/06 11:21:36;;;;;;;17.20;2.42;;;12.20;50.10;;;;;;4961633;28;20058;-72
2023/03/06 11:24:18;;;;;;;6.97;1.65;;;12.20;45.90;;;;;;4971367;28;20046;-72
2023/03/06 11:26:53;;;;;;;5.00;1.52;;;11.50;45.20;;;;;;4977630;28;20053;-74
2023/03/06 11:32:52;;;;;;;8.43;1.83;;;10.60;51.90;;;;;;4997832;28;20129;-70
2023/03/06 11:35:23;;;;;;;9.68;1.63;;;11.70;48.10;;;;;;4998318;28;20065;-72
2023/03/06 11:38:03;;;;;;;8.45;1.52;;;11.50;47.30;;;;;;4997264;28;20061;-72
2023/03/06 11:40:42;;;;;;;8.15;1.45;;;11.30;47.10;;;;;;4997275;28;20046;-72
2023/03/06 11:43:28;;;;;;;4.65;1.30;;;10.50;44.00;;;;;;4993868;28;20239;-72
2023/03/06 11:46:06;;;;;;;7.90;1.67;;;9.00;50.50;;;;;;5006320;23;20049;-72
2023/03/06 11:48:45;;;;;;;4.85;1.60;;;9.40;51.20;;;;;;4959420;28;20129;-72
2023/03/06 11:51:20;;;;;;;7.53;1.95;;;11.20;50.50;;;;;;4963755;28;20579;-71
2023/03/06 11:53:47;;;;;;;4.43;1.30;;;12.40;47.20;;;;;;4963890;28;20111;-73
2023/03/06 11:56:33;;;;;;;6.88;1.55;;;12.20;43.30;;;;;;4946152;28;20398;-72
2023/03/06 11:59:06;;;;;;;8.48;1.35;;;12.20;46.00;;;;;;4965407;28;20046;-73
2023/03/06 12:01:48;;;;;;;17.35;2.28;;;13.20;46.60;;;;;;4956395;28;20129;-70
2023/03/06 12:04:46;;;;;;;10.50;1.52;;;14.10;45.30;;;;;;4960046;28;20050;-71
2023/03/06 12:07:24;;;;;;;4.57;1.58;;;12.50;41.60;;;;;;4964711;28;20538;-72
2023/03/06 12:09:54;;;;;;;3.58;1.95;;;10.70;43.70;;;;;;4965454;28;20059;-72
2023/03/06 12:13:06;;;;;;;5.18;1.30;;;9.00;45.30;;;;;;4966914;28;20055;-72
2023/03/06 12:16:02;;;;;;;15.20;1.38;;;7.60;47.90;;;;;;4941461;28;20059;-72
2023/03/06 12:18:49;;;;;;;;;;;6.70;46.80;;;;;;4963555;28;20478;-72
2023/03/06 12:21:39;;;;;;;4.93;1.20;;;6.20;47.30;;;;;;4965847;28;19937;-72
2023/03/06 12:24:15;;;;;;;4.95;0.90;;;5.70;49.00;;;;;;4939647;28;20047;-72
2023/03/06 12:27:00;;;;;;;4.18;1.27;;;5.70;51.40;;;;;;4964406;28;20050;-71
2023/03/06 12:29:57;;;;;;;4.65;0.93;;;5.90;55.60;;;;;;4962263;28;20082;-72
2023/03/06 12:32:48;;;;;;;5.25;1.00;;;7.10;52.80;;;;;;4971921;28;20065;-72
2023/03/06 12:35:31;;;;;;;2.42;0.80;;;9.70;49.30;;;;;;4962778;28;20780;-72
2023/03/06 12:38:06;;;;;;;3.95;0.88;;;10.80;46.40;;;;;;4963148;28;20327;-70
2023/03/06 12:40:43;;;;;;;3.30;1.20;;;11.20;45.60;;;;;;4986451;23;20053;-70
2023/03/06 12:43:40;;;;;;;9.75;1.02;;;12.40;45.60;;;;;;4985904;28;20054;-73
2023/03/06 12:52:30;;;;;;;8.32;1.50;;;13.40;44.00;;;;;;4992166;23;20096;-74
2023/03/06 12:55:04;;;;;;;5.90;1.27;;;11.90;39.80;;;;;;5005414;28;20108;-74
2023/03/06 12:57:31;;;;;;;3.77;1.07;;;11.50;45.90;;;;;;5000747;28;20100;-74
2023/03/06 12:59:58;;;;;;;4.25;1.13;;;12.00;43.50;;;;;;5003238;28;20852;-74
2023/03/06 13:02:43;;;;;;;4.95;0.98;;;12.90;43.60;;;;;;4994629;23;20049;-73
2023/03/06 13:05:28;;;;;;;8.00;1.25;;;12.90;42.40;;;;;;4978868;28;20743;-73
2023/03/06 13:08:37;;;;;;;3.30;0.73;;;11.90;38.20;;;;;;4978339;28;20495;-74
2023/03/06 13:11:23;;;;;;;7.03;0.90;;;12.00;42.60;;;;;;4981052;28;20309;-74
2023/03/06 13:13:50;;;;;;;13.40;1.25;;;13.00;43.00;;;;;;4975509;28;20058;-74
2023/03/06 13:16:33;;;;;;;3.83;0.73;;;13.60;41.90;;;;;;4978952;28;20059;-74
2023/03/06 13:19:09;;;;;;;7.30;0.90;;;13.20;36.10;;;;;;4981313;28;20096;-74
2023/03/06 13:21:59;;;;;;;4.10;0.80;;;10.90;38.70;;;;;;4971993;28;20403;-73
2023/03/06 13:24:28;;;;;;;6.07;1.02;;;9.80;40.50;;;;;;4989259;23;20046;-73
2023/03/06 13:27:00;;;;;;;2.47;0.63;;;9.20;42.60;;;;;;4994275;23;20038;-73
2023/03/06 13:29:36;;;;;;;5.82;1.15;;;8.40;46.60;;;;;;4977294;28;20054;-73
2023/03/06 13:35:33;;;;;;;4.18;0.90;;;8.40;46.80;;;;;;4924321;29;20064;-73
2023/03/06 13:37:59;;;;;;;4.50;0.98;;;8.40;50.70;;;;;;4937951;28;20175;-73
2023/03/06 13:40:33;;;;;;;6.07;1.42;;;9.10;46.30;;;;;;4927245;29;20142;-73
2023/03/06 13:42:59;;;;;;;4.05;1.20;;;8.80;45.20;;;;;;4925391;29;20697;-73
2023/03/06 13:45:36;;;;;;;7.25;1.10;;;8.40;45.60;;;;;;4924697;29;20066;-73
2023/03/06 13:48:04;;;;;;;13.68;2.45;;;7.70;46.20;;;;;;4922220;29;20109;-73
2023/03/06 13:50:52;;;;;;;8.38;2.92;;;7.20;47.20;;;;;;4938729;28;20083;-73
2023/03/06 13:53:48;;;;;;;6.07;2.20;;;7.30;48.70;;;;;;4929307;29;20062;-73
2023/03/06 13:56:17;;;;;;;4.72;0.90;;;7.30;47.80;;;;;;4925685;29;20055;-72
2023/03/06 13:59:12;;;;;;;7.90;1.30;;;7.10;46.60;;;;;;4921757;29;20055;-73
2023/03/06 14:01:52;;;;;;;2.88;1.00;;;7.50;48.30;;;;;;4923473;29;20054;-73
2023/03/06 14:04:29;;;;;;;1.92;0.80;;;8.20;43.90;;;;;;4939735;28;20184;-73
2023/03/06 14:12:34;;;;;;;3.03;1.15;;;7.50;44.40;;;;;;4976615;28;20050;-72
2023/03/06 14:15:23;;;;;;;6.18;0.90;;;7.60;46.10;;;;;;4992715;23;20050;-73
2023/03/06 14:17:59;;;;;;;4.03;0.88;;;7.70;45.50;;;;;;4986771;28;20058;-73
2023/03/06 14:20:59;;;;;;;8.00;0.60;;;7.90;47.20;;;;;;5070911;23;20157;-73
2023/03/06 14:23:28;;;;;;;5.63;0.85;;;7.90;45.60;;;;;;4965677;28;20050;-73